sensor_id;sensor_type;location;lat;lon;timestamp;temperature;humidity
2435;DHT22;1228;51.022;6.764;2023-11-21T00:01:24;9.00;99.90
2435;DHT22;1228;51.022;6.764;2023-11-21T00:03:50;9.00;99.90
2435;DHT22;1228;51.022;6.764;2023-11-21T00:06:16;8.90;99.90
2435;DHT22;1228;51.022;6.764;2023-11-21T00:08:43;8.90;99.90
2435;DHT22;1228;51.022;6.764;2023-11-21T00:11:08;8.90;99.90
2435;DHT22;1228;51.022;6.764;2023-11-21T00:13:34;8.80;99.90
2435;DHT22;1228;51.022;6.764;2023-11-21T00:16:03;8.80;99.90
2435;DHT22;1228;51.022;6.764;2023-11-21T00:18:30;8.80;99.90
2435;DHT22;1228;51.022;6.764;2023-11-21T00:20:56;8.70;99.90
2435;DHT22;1228;51.022;6.764;2023-11-21T00:23:24;8.60;99.90
2435;DHT22;1228;51.022;6.764;2023-11-21T00:25:49;8.70;99.90
2435;DHT22;1228;51.022;6.764;2023-11-21T00:28:16;8.70;99.90
2435;DHT22;1228;51.022;6.764;2023-11-21T00:30:43;8.60;99.90
2435;DHT22;1228;51.022;6.764;2023-11-21T00:33:09;8.70;99.90
2435;DHT22;1228;51.022;6.764;2023-11-21T00:35:34;8.70;99.90
2435;DHT22;1228;51.022;6.764;2023-11-21T00:38:00;8.60;99.90
2435;DHT22;1228;51.022;6.764;2023-11-21T00:40:27;8.70;99.90
2435;DHT22;1228;51.022;6.764;2023-11-21T00:42:53;8.70;99.90
2435;DHT22;1228;51.022;6.764;2023-11-21T00:45:18;8.70;99.90
2435;DHT22;1228;51.022;6.764;2023-11-21T00:47:45;8.70;99.90
2435;DHT22;1228;51.022;6.764;2023-11-21T00:50:11;8.70;99.90
2435;DHT22;1228;51.022;6.764;2023-11-21T00:52:37;8.70;99.90
2435;DHT22;1228;51.022;6.764;2023-11-21T00:55:07;8.70;99.90
2435;DHT22;1228;51.022;6.764;2023-11-21T00:57:35;8.80;99.90
2435;DHT22;1228;51.022;6.764;2023-11-21T01:00:01;8.80;99.90
2435;DHT22;1228;51.022;6.764;2023-11-21T01:02:26;8.80;99.90
2435;DHT22;1228;51.022;6.764;2023-11-21T01:04:52;8.80;99.90
2435;DHT22;1228;51.022;6.764;2023-11-21T01:07:17;8.90;99.90
2435;DHT22;1228;51.022;6.764;2023-11-21T01:09:46;8.80;99.90
2435;DHT22;1228;51.022;6.764;2023-11-21T01:12:14;8.80;99.90
2435;DHT22;1228;51.022;6.764;2023-11-21T01:14:40;8.70;99.90
2435;DHT22;1228;51.022;6.764;2023-11-21T01:17:06;8.70;99.90
2435;DHT22;1228;51.022;6.764;2023-11-21T01:19:32;8.70;99.90
2435;DHT22;1228;51.022;6.764;2023-11-21T01:21:58;8.70;99.90
2435;DHT22;1228;51.022;6.764;2023-11-21T01:24:23;8.70;99.90
2435;DHT22;1228;51.022;6.764;2023-11-21T01:26:50;8.70;99.90
2435;DHT22;1228;51.022;6.764;2023-11-21T01:29:16;8.70;99.90
2435;DHT22;1228;51.022;6.764;2023-11-21T01:31:43;8.80;99.90
2435;DHT22;1228;51.022;6.764;2023-11-21T01:34:09;8.70;99.90
2435;DHT22;1228;51.022;6.764;2023-11-21T01:36:35;8.70;99.90
2435;DHT22;1228;51.022;6.764;2023-11-21T01:39:01;8.60;99.90
2435;DHT22;1228;51.022;6.764;2023-11-21T01:41:28;8.50;99.90
2435;DHT22;1228;51.022;6.764;2023-11-21T01:43:56;8.40;99.90
2435;DHT22;1228;51.022;6.764;2023-11-21T01:46:28;8.30;99.90
2435;DHT22;1228;51.022;6.764;2023-11-21T01:48:54;8.20;99.90
2435;DHT22;1228;51.022;6.764;2023-11-21T01:51:25;8.20;99.90
2435;DHT22;1228;51.022;6.764;2023-11-21T01:53:54;8.10;99.90
2435;DHT22;1228;51.022;6.764;2023-11-21T01:56:20;8.10;99.90
2435;DHT22;1228;51.022;6.764;2023-11-21T01:58:46;8.10;99.90
2435;DHT22;1228;51.022;6.764;2023-11-21T02:01:12;8.10;99.90
2435;DHT22;1228;51.022;6.764;2023-11-21T02:03:39;8.10;99.90
2435;DHT22;1228;51.022;6.764;2023-11-21T02:06:05;8.10;99.90
2435;DHT22;1228;51.022;6.764;2023-11-21T02:08:31;8.10;99.90
2435;DHT22;1228;51.022;6.764;2023-11-21T02:10:57;8.10;99.90
2435;DHT22;1228;51.022;6.764;2023-11-21T02:13:23;8.10;99.90
2435;DHT22;1228;51.022;6.764;2023-11-21T02:15:48;8.10;99.90
2435;DHT22;1228;51.022;6.764;2023-11-21T02:18:17;8.10;99.90
2435;DHT22;1228;51.022;6.764;2023-11-21T02:20:43;8.10;99.90
2435;DHT22;1228;51.022;6.764;2023-11-21T02:23:09;8.10;99.90
2435;DHT22;1228;51.022;6.764;2023-11-21T02:25:36;8.20;99.90
2435;DHT22;1228;51.022;6.764;2023-11-21T02:28:03;8.10;99.90
2435;DHT22;1228;51.022;6.764;2023-11-21T02:30:29;8.10;99.90
2435;DHT22;1228;51.022;6.764;2023-11-21T02:32:57;8.10;99.90
2435;DHT22;1228;51.022;6.764;2023-11-21T02:35:23;8.10;99.90
2435;DHT22;1228;51.022;6.764;2023-11-21T02:37:51;8.10;99.90
2435;DHT22;1228;51.022;6.764;2023-11-21T02:40:17;8.10;99.90
2435;DHT22;1228;51.022;6.764;2023-11-21T02:42:44;8.10;99.90
2435;DHT22;1228;51.022;6.764;2023-11-21T02:45:11;8.10;99.90
2435;DHT22;1228;51.022;6.764;2023-11-21T02:47:39;8.10;99.90
2435;DHT22;1228;51.022;6.764;2023-11-21T02:50:07;8.10;99.90
2435;DHT22;1228;51.022;6.764;2023-11-21T02:52:35;8.10;99.90
2435;DHT22;1228;51.022;6.764;2023-11-21T02:55:04;8.10;99.90
2435;DHT22;1228;51.022;6.764;2023-11-21T02:57:30;8.10;99.90
2435;DHT22;1228;51.022;6.764;2023-11-21T02:59:56;8.10;99.90
2435;DHT22;1228;51.022;6.764;2023-11-21T03:02:21;8.10;99.90
2435;DHT22;1228;51.022;6.764;2023-11-21T03:04:48;8.10;99.90
2435;DHT22;1228;51.022;6.764;2023-11-21T03:07:15;8.10;99.90
2435;DHT22;1228;51.022;6.764;2023-11-21T03:09:40;8.10;99.90
2435;DHT22;1228;51.022;6.764;2023-11-21T03:12:06;8.10;99.90
2435;DHT22;1228;51.022;6.764;2023-11-21T03:14:32;8.10;99.90
2435;DHT22;1228;51.022;6.764;2023-11-21T03:16:57;8.10;99.90
2435;DHT22;1228;51.022;6.764;2023-11-21T03:19:23;8.10;99.90
2435;DHT22;1228;51.022;6.764;2023-11-21T03:21:49;8.10;99.90
2435;DHT22;1228;51.022;6.764;2023-11-21T03:24:14;8.10;99.90
2435;DHT22;1228;51.022;6.764;2023-11-21T03:26:44;8.20;99.90
2435;DHT22;1228;51.022;6.764;2023-11-21T03:29:10;8.20;99.90
2435;DHT22;1228;51.022;6.764;2023-11-21T03:31:36;8.20;99.90
2435;DHT22;1228;51.022;6.764;2023-11-21T03:34:01;8.20;99.90
2435;DHT22;1228;51.022;6.764;2023-11-21T03:36:27;8.20;99.90
2435;DHT22;1228;51.022;6.764;2023-11-21T03:38:52;8.20;99.90
2435;DHT22;1228;51.022;6.764;2023-11-21T03:41:19;8.20;99.90
2435;DHT22;1228;51.022;6.764;2023-11-21T03:43:44;8.30;99.90
2435;DHT22;1228;51.022;6.764;2023-11-21T03:46:11;8.30;99.90
2435;DHT22;1228;51.022;6.764;2023-11-21T03:48:38;8.30;99.90
2435;DHT22;1228;51.022;6.764;2023-11-21T03:51:03;8.30;99.90
2435;DHT22;1228;51.022;6.764;2023-11-21T03:53:29;8.30;99.90
2435;DHT22;1228;51.022;6.764;2023-11-21T03:55:55;8.20;99.90
2435;DHT22;1228;51.022;6.764;2023-11-21T03:58:20;8.30;99.90
2435;DHT22;1228;51.022;6.764;2023-11-21T04:00:47;8.30;99.90
2435;DHT22;1228;51.022;6.764;2023-11-21T04:03:14;8.30;99.90
2435;DHT22;1228;51.022;6.764;2023-11-21T04:05:40;8.30;99.90
2435;DHT22;1228;51.022;6.764;2023-11-21T04:08:06;8.30;99.90
2435;DHT22;1228;51.022;6.764;2023-11-21T04:10:32;8.40;99.90
2435;DHT22;1228;51.022;6.764;2023-11-21T04:12:58;8.40;99.90
2435;DHT22;1228;51.022;6.764;2023-11-21T04:15:24;8.30;99.90
2435;DHT22;1228;51.022;6.764;2023-11-21T04:17:49;8.30;99.90
2435;DHT22;1228;51.022;6.764;2023-11-21T04:20:15;8.30;99.90
2435;DHT22;1228;51.022;6.764;2023-11-21T04:22:42;8.30;99.90
2435;DHT22;1228;51.022;6.764;2023-11-21T04:25:10;8.40;99.90
2435;DHT22;1228;51.022;6.764;2023-11-21T04:27:38;8.40;99.90
2435;DHT22;1228;51.022;6.764;2023-11-21T04:30:05;8.40;99.90
2435;DHT22;1228;51.022;6.764;2023-11-21T04:32:35;8.40;99.90
2435;DHT22;1228;51.022;6.764;2023-11-21T04:35:02;8.40;99.90
2435;DHT22;1228;51.022;6.764;2023-11-21T04:37:29;8.40;99.90
2435;DHT22;1228;51.022;6.764;2023-11-21T04:39:55;8.40;99.90
2435;DHT22;1228;51.022;6.764;2023-11-21T04:42:20;8.50;99.90
2435;DHT22;1228;51.022;6.764;2023-11-21T04:44:49;8.40;99.90
2435;DHT22;1228;51.022;6.764;2023-11-21T04:47:15;8.40;99.90
2435;DHT22;1228;51.022;6.764;2023-11-21T04:49:43;8.40;99.90
2435;DHT22;1228;51.022;6.764;2023-11-21T04:52:11;8.40;99.90
2435;DHT22;1228;51.022;6.764;2023-11-21T04:54:36;8.40;99.90
2435;DHT22;1228;51.022;6.764;2023-11-21T04:57:02;8.40;99.90
2435;DHT22;1228;51.022;6.764;2023-11-21T04:59:28;8.40;99.90
2435;DHT22;1228;51.022;6.764;2023-11-21T05:01:55;8.40;99.90
2435;DHT22;1228;51.022;6.764;2023-11-21T05:04:21;8.30;99.90
2435;DHT22;1228;51.022;6.764;2023-11-21T05:06:49;8.30;99.90
2435;DHT22;1228;51.022;6.764;2023-11-21T05:09:15;8.30;99.90
2435;DHT22;1228;51.022;6.764;2023-11-21T05:11:41;8.20;99.90
2435;DHT22;1228;51.022;6.764;2023-11-21T05:14:06;8.30;99.90
2435;DHT22;1228;51.022;6.764;2023-11-21T05:16:32;8.30;99.90
2435;DHT22;1228;51.022;6.764;2023-11-21T05:18:59;8.30;99.90
2435;DHT22;1228;51.022;6.764;2023-11-21T05:21:27;8.20;99.90
2435;DHT22;1228;51.022;6.764;2023-11-21T05:23:53;8.20;99.90
2435;DHT22;1228;51.022;6.764;2023-11-21T05:26:19;8.20;99.90
2435;DHT22;1228;51.022;6.764;2023-11-21T05:28:44;8.20;99.90
2435;DHT22;1228;51.022;6.764;2023-11-21T05:31:10;8.30;99.90
2435;DHT22;1228;51.022;6.764;2023-11-21T05:33:36;8.30;99.90
2435;DHT22;1228;51.022;6.764;2023-11-21T05:36:03;8.30;99.90
2435;DHT22;1228;51.022;6.764;2023-11-21T05:38:29;8.30;99.90
2435;DHT22;1228;51.022;6.764;2023-11-21T05:40:55;8.30;99.90
2435;DHT22;1228;51.022;6.764;2023-11-21T05:43:21;8.30;99.90
2435;DHT22;1228;51.022;6.764;2023-11-21T05:45:46;8.30;99.90
2435;DHT22;1228;51.022;6.764;2023-11-21T05:48:12;8.30;99.90
2435;DHT22;1228;51.022;6.764;2023-11-21T05:50:37;8.30;99.90
2435;DHT22;1228;51.022;6.764;2023-11-21T05:53:04;8.30;99.90
2435;DHT22;1228;51.022;6.764;2023-11-21T05:55:30;8.30;99.90
2435;DHT22;1228;51.022;6.764;2023-11-21T05:57:56;8.30;99.90
2435;DHT22;1228;51.022;6.764;2023-11-21T06:00:22;8.20;99.90
2435;DHT22;1228;51.022;6.764;2023-11-21T06:02:51;8.30;99.90
2435;DHT22;1228;51.022;6.764;2023-11-21T06:05:19;8.20;99.90
2435;DHT22;1228;51.022;6.764;2023-11-21T06:07:46;8.20;99.90
2435;DHT22;1228;51.022;6.764;2023-11-21T06:10:12;8.20;99.90
2435;DHT22;1228;51.022;6.764;2023-11-21T06:12:40;8.20;99.90
2435;DHT22;1228;51.022;6.764;2023-11-21T06:15:08;8.20;99.90
2435;DHT22;1228;51.022;6.764;2023-11-21T06:17:35;8.20;99.90
2435;DHT22;1228;51.022;6.764;2023-11-21T06:20:08;8.20;99.90
2435;DHT22;1228;51.022;6.764;2023-11-21T06:22:41;8.30;99.90
2435;DHT22;1228;51.022;6.764;2023-11-21T06:25:08;8.30;99.90
2435;DHT22;1228;51.022;6.764;2023-11-21T06:27:39;8.30;99.90
2435;DHT22;1228;51.022;6.764;2023-11-21T06:30:06;8.30;99.90
2435;DHT22;1228;51.022;6.764;2023-11-21T06:32:34;8.30;99.90
2435;DHT22;1228;51.022;6.764;2023-11-21T06:35:01;8.40;99.90
2435;DHT22;1228;51.022;6.764;2023-11-21T06:37:29;8.40;99.90
2435;DHT22;1228;51.022;6.764;2023-11-21T06:39:54;8.40;99.90
2435;DHT22;1228;51.022;6.764;2023-11-21T06:42:22;8.40;99.90
2435;DHT22;1228;51.022;6.764;2023-11-21T06:44:48;8.40;99.90
2435;DHT22;1228;51.022;6.764;2023-11-21T06:47:14;8.50;99.90
2435;DHT22;1228;51.022;6.764;2023-11-21T06:49:42;8.50;99.90
2435;DHT22;1228;51.022;6.764;2023-11-21T06:52:08;8.50;99.90
2435;DHT22;1228;51.022;6.764;2023-11-21T06:54:36;8.40;99.90
2435;DHT22;1228;51.022;6.764;2023-11-21T06:57:02;8.40;99.90
2435;DHT22;1228;51.022;6.764;2023-11-21T06:59:31;8.40;99.90
2435;DHT22;1228;51.022;6.764;2023-11-21T07:01:57;8.50;99.90
2435;DHT22;1228;51.022;6.764;2023-11-21T07:04:22;8.50;99.90
2435;DHT22;1228;51.022;6.764;2023-11-21T07:06:48;8.50;99.90
2435;DHT22;1228;51.022;6.764;2023-11-21T07:09:14;8.60;99.90
2435;DHT22;1228;51.022;6.764;2023-11-21T07:11:41;8.60;99.90
2435;DHT22;1228;51.022;6.764;2023-11-21T07:14:07;8.60;99.90
2435;DHT22;1228;51.022;6.764;2023-11-21T07:16:37;8.60;99.90
2435;DHT22;1228;51.022;6.764;2023-11-21T07:19:06;8.60;99.90
2435;DHT22;1228;51.022;6.764;2023-11-21T07:21:35;8.70;99.90
2435;DHT22;1228;51.022;6.764;2023-11-21T07:24:03;8.70;99.90
2435;DHT22;1228;51.022;6.764;2023-11-21T07:26:30;8.80;99.90
2435;DHT22;1228;51.022;6.764;2023-11-21T07:28:56;8.80;99.90
2435;DHT22;1228;51.022;6.764;2023-11-21T07:31:24;8.90;99.90
2435;DHT22;1228;51.022;6.764;2023-11-21T07:33:50;9.00;99.90
2435;DHT22;1228;51.022;6.764;2023-11-21T07:36:17;9.00;99.90
2435;DHT22;1228;51.022;6.764;2023-11-21T07:38:49;9.00;99.90
2435;DHT22;1228;51.022;6.764;2023-11-21T07:41:15;9.10;99.90
2435;DHT22;1228;51.022;6.764;2023-11-21T07:43:43;9.10;99.90
2435;DHT22;1228;51.022;6.764;2023-11-21T07:46:08;9.20;99.90
2435;DHT22;1228;51.022;6.764;2023-11-21T07:48:34;9.20;99.90
2435;DHT22;1228;51.022;6.764;2023-11-21T07:51:02;9.20;99.90
2435;DHT22;1228;51.022;6.764;2023-11-21T07:53:32;9.30;99.90
2435;DHT22;1228;51.022;6.764;2023-11-21T07:56:02;9.30;99.90
2435;DHT22;1228;51.022;6.764;2023-11-21T07:58:28;9.40;99.90
2435;DHT22;1228;51.022;6.764;2023-11-21T08:00:54;9.40;99.90
2435;DHT22;1228;51.022;6.764;2023-11-21T08:03:20;9.40;99.90
2435;DHT22;1228;51.022;6.764;2023-11-21T08:05:46;9.50;99.90
2435;DHT22;1228;51.022;6.764;2023-11-21T08:08:12;9.50;99.90
2435;DHT22;1228;51.022;6.764;2023-11-21T08:10:37;9.50;99.90
2435;DHT22;1228;51.022;6.764;2023-11-21T08:13:05;9.50;99.90
2435;DHT22;1228;51.022;6.764;2023-11-21T08:15:32;9.60;99.90
2435;DHT22;1228;51.022;6.764;2023-11-21T08:17:58;9.60;99.90
2435;DHT22;1228;51.022;6.764;2023-11-21T08:20:26;9.60;99.90
2435;DHT22;1228;51.022;6.764;2023-11-21T08:22:52;9.60;99.90
2435;DHT22;1228;51.022;6.764;2023-11-21T08:25:18;9.60;99.90
2435;DHT22;1228;51.022;6.764;2023-11-21T08:27:45;9.50;99.90
2435;DHT22;1228;51.022;6.764;2023-11-21T08:30:12;9.50;99.90
2435;DHT22;1228;51.022;6.764;2023-11-21T08:32:39;9.50;99.90
2435;DHT22;1228;51.022;6.764;2023-11-21T08:35:05;9.50;99.90
2435;DHT22;1228;51.022;6.764;2023-11-21T08:37:31;9.50;99.90
2435;DHT22;1228;51.022;6.764;2023-11-21T08:39:59;9.50;99.90
2435;DHT22;1228;51.022;6.764;2023-11-21T08:42:25;9.50;99.90
2435;DHT22;1228;51.022;6.764;2023-11-21T08:44:50;9.60;99.90
2435;DHT22;1228;51.022;6.764;2023-11-21T08:47:16;9.70;99.90
2435;DHT22;1228;51.022;6.764;2023-11-21T08:49:42;9.70;99.90
2435;DHT22;1228;51.022;6.764;2023-11-21T08:52:08;9.80;99.90
2435;DHT22;1228;51.022;6.764;2023-11-21T08:54:34;9.80;99.90
2435;DHT22;1228;51.022;6.764;2023-11-21T08:57:00;9.80;99.90
2435;DHT22;1228;51.022;6.764;2023-11-21T08:59:26;9.90;99.90
2435;DHT22;1228;51.022;6.764;2023-11-21T09:01:52;10.00;99.90
2435;DHT22;1228;51.022;6.764;2023-11-21T09:04:17;10.10;99.90
2435;DHT22;1228;51.022;6.764;2023-11-21T09:06:43;10.20;99.90
2435;DHT22;1228;51.022;6.764;2023-11-21T09:09:08;10.30;99.90
2435;DHT22;1228;51.022;6.764;2023-11-21T09:11:36;10.30;99.90
2435;DHT22;1228;51.022;6.764;2023-11-21T09:14:03;10.40;99.90
2435;DHT22;1228;51.022;6.764;2023-11-21T09:16:31;10.30;99.90
2435;DHT22;1228;51.022;6.764;2023-11-21T09:18:58;10.30;99.90
2435;DHT22;1228;51.022;6.764;2023-11-21T09:21:25;10.30;99.90
2435;DHT22;1228;51.022;6.764;2023-11-21T09:23:51;10.30;99.90
2435;DHT22;1228;51.022;6.764;2023-11-21T09:26:17;10.20;99.90
2435;DHT22;1228;51.022;6.764;2023-11-21T09:28:46;10.30;99.90
2435;DHT22;1228;51.022;6.764;2023-11-21T09:31:14;10.30;99.90
2435;DHT22;1228;51.022;6.764;2023-11-21T09:33:42;10.40;99.90
2435;DHT22;1228;51.022;6.764;2023-11-21T09:36:12;10.40;99.90
2435;DHT22;1228;51.022;6.764;2023-11-21T09:38:39;10.40;99.90
2435;DHT22;1228;51.022;6.764;2023-11-21T09:41:06;10.40;99.90
2435;DHT22;1228;51.022;6.764;2023-11-21T09:43:35;10.40;99.90
2435;DHT22;1228;51.022;6.764;2023-11-21T09:46:02;10.40;99.90
2435;DHT22;1228;51.022;6.764;2023-11-21T09:48:30;10.40;99.90
2435;DHT22;1228;51.022;6.764;2023-11-21T09:50:58;10.40;99.90
2435;DHT22;1228;51.022;6.764;2023-11-21T09:53:27;10.30;99.90
2435;DHT22;1228;51.022;6.764;2023-11-21T09:55:55;10.20;99.90
2435;DHT22;1228;51.022;6.764;2023-11-21T09:58:22;10.30;99.90
2435;DHT22;1228;51.022;6.764;2023-11-21T10:00:56;10.40;99.90
2435;DHT22;1228;51.022;6.764;2023-11-21T10:03:24;10.50;99.90
2435;DHT22;1228;51.022;6.764;2023-11-21T10:05:51;10.60;99.90
2435;DHT22;1228;51.022;6.764;2023-11-21T10:08:20;10.60;99.90
2435;DHT22;1228;51.022;6.764;2023-11-21T10:10:51;10.60;99.90
2435;DHT22;1228;51.022;6.764;2023-11-21T10:13:18;10.70;99.90
2435;DHT22;1228;51.022;6.764;2023-11-21T10:15:51;10.90;99.90
2435;DHT22;1228;51.022;6.764;2023-11-21T10:18:19;11.00;99.90
2435;DHT22;1228;51.022;6.764;2023-11-21T10:20:50;11.10;99.90
2435;DHT22;1228;51.022;6.764;2023-11-21T10:23:19;11.20;99.90
2435;DHT22;1228;51.022;6.764;2023-11-21T10:25:47;11.30;99.90
2435;DHT22;1228;51.022;6.764;2023-11-21T10:28:13;11.30;99.90
2435;DHT22;1228;51.022;6.764;2023-11-21T10:30:40;11.30;99.90
2435;DHT22;1228;51.022;6.764;2023-11-21T10:33:07;11.30;99.90
2435;DHT22;1228;51.022;6.764;2023-11-21T10:38:08;11.30;99.90
2435;DHT22;1228;51.022;6.764;2023-11-21T10:40:43;11.30;99.90
2435;DHT22;1228;51.022;6.764;2023-11-21T10:43:10;11.30;99.90
2435;DHT22;1228;51.022;6.764;2023-11-21T10:45:38;11.50;99.90
2435;DHT22;1228;51.022;6.764;2023-11-21T10:48:12;11.40;99.90
2435;DHT22;1228;51.022;6.764;2023-11-21T10:50:41;11.30;99.90
2435;DHT22;1228;51.022;6.764;2023-11-21T10:53:07;11.30;99.90
2435;DHT22;1228;51.022;6.764;2023-11-21T10:55:34;11.30;99.90
2435;DHT22;1228;51.022;6.764;2023-11-21T10:58:02;11.30;99.90
2435;DHT22;1228;51.022;6.764;2023-11-21T11:00:30;11.20;99.90
2435;DHT22;1228;51.022;6.764;2023-11-21T11:02:56;11.20;99.90
2435;DHT22;1228;51.022;6.764;2023-11-21T11:05:26;11.30;99.90
2435;DHT22;1228;51.022;6.764;2023-11-21T11:08:04;11.30;99.90
2435;DHT22;1228;51.022;6.764;2023-11-21T11:10:30;11.40;99.90
2435;DHT22;1228;51.022;6.764;2023-11-21T11:12:57;11.50;99.90
2435;DHT22;1228;51.022;6.764;2023-11-21T11:15:24;11.50;99.90
2435;DHT22;1228;51.022;6.764;2023-11-21T11:17:52;11.50;99.90
2435;DHT22;1228;51.022;6.764;2023-11-21T11:20:18;11.60;99.90
2435;DHT22;1228;51.022;6.764;2023-11-21T11:25:33;11.40;99.90
2435;DHT22;1228;51.022;6.764;2023-11-21T11:28:07;11.30;99.90
2435;DHT22;1228;51.022;6.764;2023-11-21T11:31:04;11.30;99.90
2435;DHT22;1228;51.022;6.764;2023-11-21T11:33:55;11.20;99.90
2435;DHT22;1228;51.022;6.764;2023-11-21T11:36:31;11.30;99.90
2435;DHT22;1228;51.022;6.764;2023-11-21T11:38:59;11.40;99.90
2435;DHT22;1228;51.022;6.764;2023-11-21T11:41:30;11.60;99.90
2435;DHT22;1228;51.022;6.764;2023-11-21T11:43:58;11.70;99.90
2435;DHT22;1228;51.022;6.764;2023-11-21T11:46:41;11.60;99.90
2435;DHT22;1228;51.022;6.764;2023-11-21T11:49:08;11.40;99.90
2435;DHT22;1228;51.022;6.764;2023-11-21T11:51:34;11.20;99.90
2435;DHT22;1228;51.022;6.764;2023-11-21T11:54:01;11.20;99.90
2435;DHT22;1228;51.022;6.764;2023-11-21T11:56:31;11.20;99.90
2435;DHT22;1228;51.022;6.764;2023-11-21T11:59:03;11.20;99.90
2435;DHT22;1228;51.022;6.764;2023-11-21T12:01:33;11.30;99.90
2435;DHT22;1228;51.022;6.764;2023-11-21T12:06:44;11.30;99.90
2435;DHT22;1228;51.022;6.764;2023-11-21T12:09:21;11.20;99.90
2435;DHT22;1228;51.022;6.764;2023-11-21T12:11:49;11.20;99.90
2435;DHT22;1228;51.022;6.764;2023-11-21T12:14:15;11.30;99.90
2435;DHT22;1228;51.022;6.764;2023-11-21T12:16:43;11.30;99.90
2435;DHT22;1228;51.022;6.764;2023-11-21T12:19:11;11.20;99.90
2435;DHT22;1228;51.022;6.764;2023-11-21T12:21:37;11.20;99.90
2435;DHT22;1228;51.022;6.764;2023-11-21T12:24:03;11.20;99.90
2435;DHT22;1228;51.022;6.764;2023-11-21T12:26:29;11.20;99.90
2435;DHT22;1228;51.022;6.764;2023-11-21T12:28:55;11.20;99.90
2435;DHT22;1228;51.022;6.764;2023-11-21T12:31:23;11.40;99.90
2435;DHT22;1228;51.022;6.764;2023-11-21T12:33:50;11.40;99.90
2435;DHT22;1228;51.022;6.764;2023-11-21T12:36:16;11.40;99.90
2435;DHT22;1228;51.022;6.764;2023-11-21T12:38:42;11.50;99.90
2435;DHT22;1228;51.022;6.764;2023-11-21T12:41:11;11.60;99.90
2435;DHT22;1228;51.022;6.764;2023-11-21T12:43:38;11.70;99.90
2435;DHT22;1228;51.022;6.764;2023-11-21T12:46:09;11.80;99.90
2435;DHT22;1228;51.022;6.764;2023-11-21T12:48:38;11.90;99.90
2435;DHT22;1228;51.022;6.764;2023-11-21T12:51:12;11.90;99.90
2435;DHT22;1228;51.022;6.764;2023-11-21T12:53:42;12.10;99.90
2435;DHT22;1228;51.022;6.764;2023-11-21T12:56:10;12.40;99.90
2435;DHT22;1228;51.022;6.764;2023-11-21T12:58:38;12.90;99.90
2435;DHT22;1228;51.022;6.764;2023-11-21T13:01:06;13.20;99.90
2435;DHT22;1228;51.022;6.764;2023-11-21T13:03:37;13.40;99.90
2435;DHT22;1228;51.022;6.764;2023-11-21T13:06:04;13.20;99.90
2435;DHT22;1228;51.022;6.764;2023-11-21T13:08:31;12.80;99.90
2435;DHT22;1228;51.022;6.764;2023-11-21T13:10:58;12.50;99.90
2435;DHT22;1228;51.022;6.764;2023-11-21T13:13:27;12.30;99.90
2435;DHT22;1228;51.022;6.764;2023-11-21T13:15:58;12.30;99.90
2435;DHT22;1228;51.022;6.764;2023-11-21T13:18:30;12.10;99.90
2435;DHT22;1228;51.022;6.764;2023-11-21T13:21:01;12.00;99.90
2435;DHT22;1228;51.022;6.764;2023-11-21T13:23:34;11.90;99.90
2435;DHT22;1228;51.022;6.764;2023-11-21T13:26:01;11.80;99.90
2435;DHT22;1228;51.022;6.764;2023-11-21T13:28:34;11.80;99.90
2435;DHT22;1228;51.022;6.764;2023-11-21T13:31:01;11.70;99.90
2435;DHT22;1228;51.022;6.764;2023-11-21T13:33:28;11.70;99.90
2435;DHT22;1228;51.022;6.764;2023-11-21T13:35:54;11.60;99.90
2435;DHT22;1228;51.022;6.764;2023-11-21T13:38:21;11.60;99.90
2435;DHT22;1228;51.022;6.764;2023-11-21T13:40:52;11.60;99.90
2435;DHT22;1228;51.022;6.764;2023-11-21T13:43:23;11.60;99.90
2435;DHT22;1228;51.022;6.764;2023-11-21T13:45:51;11.60;99.90
2435;DHT22;1228;51.022;6.764;2023-11-21T13:48:26;11.60;99.90
2435;DHT22;1228;51.022;6.764;2023-11-21T13:50:58;11.60;99.90
2435;DHT22;1228;51.022;6.764;2023-11-21T13:53:27;11.70;99.90
2435;DHT22;1228;51.022;6.764;2023-11-21T13:55:56;11.70;99.90
2435;DHT22;1228;51.022;6.764;2023-11-21T13:58:23;11.70;99.90
2435;DHT22;1228;51.022;6.764;2023-11-21T14:01:00;11.70;99.90
2435;DHT22;1228;51.022;6.764;2023-11-21T14:03:27;11.60;99.90
2435;DHT22;1228;51.022;6.764;2023-11-21T14:06:05;11.50;99.90
2435;DHT22;1228;51.022;6.764;2023-11-21T14:08:40;11.60;99.90
2435;DHT22;1228;51.022;6.764;2023-11-21T14:11:07;11.60;99.90
2435;DHT22;1228;51.022;6.764;2023-11-21T14:13:33;11.50;99.90
2435;DHT22;1228;51.022;6.764;2023-11-21T14:15:59;11.50;99.90
2435;DHT22;1228;51.022;6.764;2023-11-21T14:18:26;11.60;99.90
2435;DHT22;1228;51.022;6.764;2023-11-21T14:21:07;11.60;99.90
2435;DHT22;1228;51.022;6.764;2023-11-21T14:23:36;11.50;99.90
2435;DHT22;1228;51.022;6.764;2023-11-21T14:26:05;11.60;99.90
2435;DHT22;1228;51.022;6.764;2023-11-21T14:28:32;11.50;99.90
2435;DHT22;1228;51.022;6.764;2023-11-21T14:31:02;11.40;99.90
2435;DHT22;1228;51.022;6.764;2023-11-21T14:33:29;11.40;99.90
2435;DHT22;1228;51.022;6.764;2023-11-21T14:35:54;11.40;99.90
2435;DHT22;1228;51.022;6.764;2023-11-21T14:38:20;11.30;99.90
2435;DHT22;1228;51.022;6.764;2023-11-21T14:40:46;11.30;99.90
2435;DHT22;1228;51.022;6.764;2023-11-21T14:43:14;11.30;99.90
2435;DHT22;1228;51.022;6.764;2023-11-21T14:45:39;11.30;99.90
2435;DHT22;1228;51.022;6.764;2023-11-21T14:48:07;11.30;99.90
2435;DHT22;1228;51.022;6.764;2023-11-21T14:50:56;11.30;99.90
2435;DHT22;1228;51.022;6.764;2023-11-21T14:53:27;11.20;99.90
2435;DHT22;1228;51.022;6.764;2023-11-21T14:56:11;11.20;99.90
2435;DHT22;1228;51.022;6.764;2023-11-21T14:58:47;11.20;99.90
2435;DHT22;1228;51.022;6.764;2023-11-21T15:01:13;11.10;99.90
2435;DHT22;1228;51.022;6.764;2023-11-21T15:03:49;11.10;99.90
2435;DHT22;1228;51.022;6.764;2023-11-21T15:06:15;11.10;99.90
2435;DHT22;1228;51.022;6.764;2023-11-21T15:08:54;11.10;99.90
2435;DHT22;1228;51.022;6.764;2023-11-21T15:11:35;11.10;99.90
2435;DHT22;1228;51.022;6.764;2023-11-21T15:14:02;11.00;99.90
2435;DHT22;1228;51.022;6.764;2023-11-21T15:16:33;11.00;99.90
2435;DHT22;1228;51.022;6.764;2023-11-21T15:18:59;11.00;99.90
2435;DHT22;1228;51.022;6.764;2023-11-21T15:21:26;10.90;99.90
2435;DHT22;1228;51.022;6.764;2023-11-21T15:23:52;10.80;99.90
2435;DHT22;1228;51.022;6.764;2023-11-21T15:26:19;10.70;99.90
2435;DHT22;1228;51.022;6.764;2023-11-21T15:28:45;10.60;99.90
2435;DHT22;1228;51.022;6.764;2023-11-21T15:31:11;10.50;99.90
2435;DHT22;1228;51.022;6.764;2023-11-21T15:33:37;10.40;99.90
2435;DHT22;1228;51.022;6.764;2023-11-21T15:36:03;10.30;99.90
2435;DHT22;1228;51.022;6.764;2023-11-21T15:38:30;10.30;99.90
2435;DHT22;1228;51.022;6.764;2023-11-21T15:40:55;10.20;99.90
2435;DHT22;1228;51.022;6.764;2023-11-21T15:43:24;10.20;99.90
2435;DHT22;1228;51.022;6.764;2023-11-21T15:45:50;10.20;99.90
2435;DHT22;1228;51.022;6.764;2023-11-21T15:48:15;10.20;99.90
2435;DHT22;1228;51.022;6.764;2023-11-21T15:50:41;10.20;99.90
2435;DHT22;1228;51.022;6.764;2023-11-21T15:53:07;10.20;99.90
2435;DHT22;1228;51.022;6.764;2023-11-21T15:55:34;10.10;99.90
2435;DHT22;1228;51.022;6.764;2023-11-21T15:58:01;10.10;99.90
2435;DHT22;1228;51.022;6.764;2023-11-21T16:00:31;10.10;99.90
2435;DHT22;1228;51.022;6.764;2023-11-21T16:02:57;10.10;99.90
2435;DHT22;1228;51.022;6.764;2023-11-21T16:05:23;10.00;99.90
2435;DHT22;1228;51.022;6.764;2023-11-21T16:07:51;10.00;99.90
2435;DHT22;1228;51.022;6.764;2023-11-21T16:10:18;10.00;99.90
2435;DHT22;1228;51.022;6.764;2023-11-21T16:12:44;10.00;99.90
2435;DHT22;1228;51.022;6.764;2023-11-21T16:15:10;10.00;99.90
2435;DHT22;1228;51.022;6.764;2023-11-21T16:17:37;10.00;99.90
2435;DHT22;1228;51.022;6.764;2023-11-21T16:20:07;10.00;99.90